createdAt,value
2023-05-05T06:49:42.667Z,98866.2
2023-05-05T06:55:16.963Z,98868
2023-05-05T07:00:52.909Z,98868.3
2023-05-05T07:06:28.953Z,98870
2023-05-05T07:12:04.896Z,98871.7
2023-05-05T07:17:42.107Z,98867.8
2023-05-05T07:23:19.157Z,98869.6
2023-05-05T07:29:27.339Z,98871.9
2023-05-05T07:35:08.797Z,98878.3
2023-05-05T07:40:46.085Z,98875.9
2023-05-05T07:46:47.119Z,98877.8
2023-05-05T07:52:51.668Z,98881.5
2023-05-05T07:58:52.702Z,98880
2023-05-05T08:04:30.531Z,98882.4
2023-05-05T08:10:05.979Z,98883.3
2023-05-05T08:15:42.573Z,98879.5
2023-05-05T08:21:24.500Z,98875.6
2023-05-05T08:27:03.125Z,98880.8
2023-05-05T08:32:49.783Z,98879.1
2023-05-05T08:38:32.484Z,98885
2023-05-05T08:44:13.983Z,98882.3
2023-05-05T08:49:54.651Z,98876.6
2023-05-05T08:55:42.717Z,98872
2023-05-05T09:01:19.601Z,98863.8
2023-05-05T09:07:01.540Z,98866.5
2023-05-05T09:12:39.152Z,98860.1
2023-05-05T09:18:16.092Z,98859.1
2023-05-05T09:24:10.173Z,98861.4
2023-05-05T09:29:46.395Z,98857.1
2023-05-05T09:35:21.778Z,98852.9
2023-05-05T09:40:59.498Z,98848.3
2023-05-05T09:46:35.869Z,98847.9
2023-05-05T09:52:13.916Z,98843.8
2023-05-05T09:57:50.295Z,98842.3
2023-05-05T10:03:26.867Z,98839
2023-05-05T10:09:10.313Z,98827.2
2023-05-05T10:14:54.375Z,98822.6
2023-05-05T10:20:31.287Z,98811.8
2023-05-05T10:26:11.972Z,98802.8
2023-05-05T10:31:48.245Z,98795.1
2023-05-05T10:37:26.666Z,98785.7
2023-05-05T10:43:04.961Z,98788.8
2023-05-05T10:48:40.863Z,98788.7
2023-05-05T10:54:17.449Z,98789.7
2023-05-05T10:59:56.877Z,98789.3
2023-05-05T11:05:35.221Z,98787.1
2023-05-05T11:11:10.889Z,98788.3
2023-05-05T11:16:46.904Z,98782.9
2023-05-05T11:22:25.017Z,98781.5
2023-05-05T11:28:01.602Z,98774
2023-05-05T11:33:37.554Z,98773.7
2023-05-05T11:39:16.530Z,98771.9
2023-05-05T11:44:52.909Z,98765.3
2023-05-05T11:50:28.247Z,98763.1
2023-05-05T11:56:03.626Z,98758
2023-05-05T12:01:39.822Z,98761.1
2023-05-05T12:07:19.011Z,98756.3
2023-05-05T12:13:01.732Z,98758.4
2023-05-05T12:18:38.114Z,98759.1
2023-05-05T12:24:14.120Z,98747.3
2023-05-05T12:29:51.743Z,98740.5
2023-05-05T12:35:28.401Z,98731.4
2023-05-05T12:41:04.377Z,98722.7
2023-05-05T12:46:41.031Z,98718.9
2023-05-05T12:52:19.894Z,98717.4
2023-05-05T12:58:20.878Z,98711.8
2023-05-05T13:03:56.864Z,98696.1
2023-05-05T13:09:33.969Z,98689.5
2023-05-05T13:15:10.370Z,98687.3
2023-05-05T13:20:48.216Z,98683.2
2023-05-05T13:26:24.659Z,98674.4
2023-05-05T13:32:00.569Z,98668.3
2023-05-05T13:37:37.014Z,98660.9
2023-05-05T13:43:14.156Z,98649
2023-05-05T13:48:57.009Z,98649.4
2023-05-05T13:54:32.991Z,98637.4
2023-05-05T14:00:08.679Z,98630.9
2023-05-05T14:05:43.988Z,98631.2
2023-05-05T14:11:20.001Z,98635
2023-05-05T14:17:01.868Z,98635.2
2023-05-05T14:22:38.012Z,98639.1
2023-05-05T14:28:13.784Z,98639.6
2023-05-05T14:33:49.473Z,98627.6
2023-05-05T14:39:24.625Z,98628.2
2023-05-05T14:45:00.795Z,98622.8
2023-05-05T14:50:37.407Z,98614.4
2023-05-05T14:56:50.867Z,98615.6
2023-05-05T15:02:27.732Z,98616.6
2023-05-05T15:08:04.701Z,98612
2023-05-05T15:13:40.720Z,98606.6
2023-05-05T15:19:16.981Z,98608.7
2023-05-05T15:24:53.817Z,98615.3
2023-05-05T15:30:29.180Z,98613
2023-05-05T15:36:08.441Z,98609.9
2023-05-05T15:41:51.714Z,98605.6
2023-05-05T15:47:27.385Z,98603.9
2023-05-05T15:53:03.547Z,98610.7
2023-05-05T15:58:40.005Z,98599.4
2023-05-05T16:04:15.914Z,98589.5
2023-05-05T16:09:52.473Z,98602.5
2023-05-05T16:15:28.576Z,98592.8
2023-05-05T16:21:05.395Z,98588
2023-05-05T16:26:41.179Z,98577.7
2023-05-05T16:32:16.959Z,98578.2
2023-05-05T16:38:01.217Z,98578.3
2023-05-05T16:43:37.829Z,98578.4
2023-05-05T16:49:14.295Z,98579.2
2023-05-05T16:54:57.473Z,98572.7
2023-05-05T17:00:33.477Z,98576.4
2023-05-05T17:06:08.949Z,98567.7
2023-05-05T17:11:46.909Z,98564.4
2023-05-05T17:17:23.535Z,98564.4
2023-05-05T17:23:07.982Z,98565.4
2023-05-05T17:28:44.540Z,98560.4
2023-05-05T17:34:20.065Z,98553.2
2023-05-05T17:39:55.732Z,98551.1
2023-05-05T17:45:31.201Z,98551.2
2023-05-05T17:51:07.747Z,98547.6
2023-05-05T17:56:48.158Z,98549.4
2023-05-05T18:02:24.415Z,98547.8
2023-05-05T18:08:00.490Z,98553.1
2023-05-05T18:13:55.903Z,98552.4
2023-05-05T18:19:40.352Z,98554
2023-05-05T18:25:15.832Z,98561.5
2023-05-05T18:30:54.260Z,98555.4
2023-05-05T18:36:50.323Z,98566.9
2023-05-05T18:42:26.864Z,98564.5
2023-05-05T18:48:25.008Z,98565.1
2023-05-05T18:54:00.865Z,98568.7
2023-05-05T18:59:54.177Z,98568.5
2023-05-05T19:05:30.971Z,98571.1
2023-05-05T19:11:11.415Z,98584.1
2023-05-05T19:16:50.502Z,98593
2023-05-05T19:22:30.276Z,98589.2
2023-05-05T19:28:28.358Z,98590.5
2023-05-05T19:34:26.037Z,98599.7
2023-05-05T19:40:03.467Z,98593.6
2023-05-05T19:45:51.963Z,98594.2
2023-05-05T19:51:39.537Z,98600
2023-05-05T19:57:33.167Z,98599.8
2023-05-05T20:03:10.100Z,98595.2
2023-05-05T20:08:47.898Z,98596.5
2023-05-05T20:14:25.392Z,98590.4
2023-05-05T20:20:00.830Z,98593.9
2023-05-05T20:25:38.402Z,98602.6
2023-05-05T20:31:22.821Z,98600.8
2023-05-05T20:36:59.114Z,98598.8
2023-05-05T20:42:36.822Z,98594.5
2023-05-05T20:48:34.207Z,98587.9
2023-05-05T20:54:08.006Z,98595.9
2023-05-05T20:59:43.836Z,98605.4
